Main page
METAR-TAF:

METAR-TAF

Airports :

Logroño, Spain

Logroño–Agoncillo Airport

latitude: 42-27N, longitude: 002-20W, elevation: 353 m

Current weather observation

The report was made 13 minutes ago, at 07:00 UTC
Wind 8 kt from the West/Northwest, varying between West and Northwest
Temperature 5°C
Humidity 87%
Pressure 1026 hPa
Visibility 10 km or more
Few clouds at a height of 1500 ft
Scattered clouds at a height of 3000 ft
light drizzle

METAR: LELO 180700Z 29008KT 260V320 9999 -DZ FEW015 SCT030 05/03 Q1026

Time: 08:13 (07:13 UTC)

Forecast

The report was made 2 hours and 13 minutes ago, at 05:00 UTC
Forecast valid from 18 at 06 UTC to 18 at 15 UTC
Wind 8 kt from the West
Visibility 10 km or more
Broken clouds at a height of 3000 ft
Probability 40% :
Temporary
from 18 at 06 UTC to 18 at 10 UTC
Broken clouds at a height of 1400 ft

TAF: LELO 180500Z 1806/1815 28008KT 9999 BKN030 PROB40 TEMPO 1806/1810 BKN014

Weather observations and forecasts of more than 4000 airports (METAR and TAF reports).

The available stations are represented by yellow and red dots on the map.

Hover mouse over dot to see the name of the station.

Then click to see weather observations and forecasts.

To change the map : click on the green buttons with a black cross to zoom in, on the green button with a dash to zoom out, or on the green arrows for adjacent maps.


METAR-TAF: